createdAt,value
2022-11-09T00:00:03.141Z,0.00
2022-11-09T00:01:03.141Z,0.00
2022-11-09T00:02:03.203Z,0.00
2022-11-09T00:03:03.144Z,0.00
2022-11-09T00:04:03.157Z,0.00
2022-11-09T00:05:03.146Z,0.00
2022-11-09T00:06:03.152Z,0.00
2022-11-09T00:07:03.262Z,0.00
2022-11-09T00:08:03.146Z,0.00
2022-11-09T00:09:07.441Z,0.00
2022-11-09T00:10:03.199Z,0.00
2022-11-09T00:11:03.137Z,0.00
2022-11-09T00:12:03.135Z,0.00
2022-11-09T00:13:03.136Z,0.00
2022-11-09T00:14:03.153Z,0.00
2022-11-09T00:15:03.140Z,0.00
2022-11-09T00:16:03.144Z,0.00
2022-11-09T00:17:03.136Z,0.00
2022-11-09T00:18:03.142Z,0.00
2022-11-09T00:19:03.136Z,0.00
2022-11-09T00:20:03.139Z,0.00
2022-11-09T00:21:03.140Z,0.00
2022-11-09T00:22:03.133Z,0.00
2022-11-09T00:23:03.131Z,0.00
2022-11-09T00:24:03.138Z,0.00
2022-11-09T00:25:03.132Z,0.00
2022-11-09T00:26:03.134Z,0.00
2022-11-09T00:27:03.138Z,0.00
2022-11-09T00:28:03.134Z,0.00
2022-11-09T00:29:03.139Z,0.00
2022-11-09T00:30:03.149Z,0.00
2022-11-09T00:31:03.126Z,0.00
2022-11-09T00:32:03.129Z,0.00
2022-11-09T00:33:03.124Z,0.00
2022-11-09T00:34:03.129Z,0.00
2022-11-09T00:35:03.133Z,0.00
2022-11-09T00:36:03.128Z,0.00
2022-11-09T00:37:03.128Z,4.00
2022-11-09T00:38:03.223Z,4.00
2022-11-09T00:39:03.123Z,4.00
2022-11-09T00:40:03.140Z,4.00
2022-11-09T00:41:03.129Z,4.00
2022-11-09T00:42:03.122Z,4.00
2022-11-09T00:43:03.122Z,4.00
2022-11-09T00:44:03.126Z,0.00
2022-11-09T00:45:03.122Z,4.00
2022-11-09T00:46:03.141Z,0.00
2022-11-09T00:47:03.119Z,0.00
2022-11-09T00:48:03.120Z,0.00
2022-11-09T00:49:03.133Z,0.00
2022-11-09T00:50:03.122Z,0.00
2022-11-09T00:51:03.117Z,0.00
2022-11-09T00:52:03.120Z,0.00
2022-11-09T00:53:03.117Z,0.00
2022-11-09T00:54:03.124Z,0.00
2022-11-09T00:55:03.116Z,0.00
2022-11-09T00:56:03.121Z,0.00
2022-11-09T00:57:03.119Z,0.00
2022-11-09T00:58:03.117Z,0.00
2022-11-09T00:59:03.115Z,0.00
2022-11-09T01:00:03.111Z,0.00
2022-11-09T01:01:03.154Z,0.00
2022-11-09T01:02:03.190Z,0.00
2022-11-09T01:03:03.119Z,0.00
2022-11-09T01:04:03.117Z,0.00
2022-11-09T01:05:03.127Z,0.00
2022-11-09T01:06:03.108Z,0.00
2022-11-09T01:07:03.212Z,0.00
2022-11-09T01:08:03.112Z,0.00
2022-11-09T01:09:03.108Z,4.00
2022-11-09T01:10:03.112Z,4.00
2022-11-09T01:11:03.114Z,4.00
2022-11-09T01:12:03.107Z,0.00
2022-11-09T01:13:03.111Z,0.00
2022-11-09T01:14:03.110Z,0.00
2022-11-09T01:15:03.107Z,0.00
2022-11-09T01:16:03.111Z,0.00
2022-11-09T01:17:03.104Z,0.00
2022-11-09T01:18:03.124Z,4.00
2022-11-09T01:19:03.104Z,4.00
2022-11-09T01:20:03.106Z,0.00
2022-11-09T01:21:03.101Z,0.00
2022-11-09T01:22:03.106Z,0.00
2022-11-09T01:23:03.100Z,0.00
2022-11-09T01:24:03.101Z,0.00
2022-11-09T01:25:03.102Z,0.00
2022-11-09T01:26:03.101Z,0.00
2022-11-09T01:27:03.102Z,0.00
2022-11-09T01:28:03.104Z,4.00
2022-11-09T01:29:03.095Z,4.00
2022-11-09T01:30:03.124Z,0.00
2022-11-09T01:31:03.105Z,4.00
2022-11-09T01:32:03.095Z,4.00
2022-11-09T01:33:03.094Z,0.00
2022-11-09T01:34:03.128Z,4.00
2022-11-09T01:35:03.100Z,0.00
2022-11-09T01:36:03.102Z,0.00
2022-11-09T01:37:03.099Z,0.00
2022-11-09T01:38:03.092Z,0.00
2022-11-09T01:39:03.096Z,0.00
2022-11-09T01:40:03.096Z,0.00
2022-11-09T01:41:03.096Z,0.00
2022-11-09T01:42:03.091Z,0.00
2022-11-09T01:43:03.100Z,0.00
2022-11-09T01:44:03.088Z,0.00
2022-11-09T01:45:03.093Z,0.00
2022-11-09T01:46:03.095Z,0.00
2022-11-09T01:47:03.091Z,4.00
2022-11-09T01:48:03.092Z,4.00
2022-11-09T01:49:03.093Z,4.00
2022-11-09T01:50:03.112Z,0.00
2022-11-09T01:51:03.088Z,0.00
2022-11-09T01:52:03.091Z,0.00
2022-11-09T01:53:03.091Z,0.00
2022-11-09T01:54:03.089Z,0.00
2022-11-09T01:55:03.087Z,0.00
2022-11-09T01:56:03.085Z,0.00
2022-11-09T01:57:03.083Z,0.00
2022-11-09T01:58:03.085Z,0.00
2022-11-09T01:59:03.093Z,0.00
2022-11-09T02:00:03.085Z,4.00
2022-11-09T02:01:03.100Z,0.00
2022-11-09T02:02:03.085Z,4.00
2022-11-09T02:03:03.085Z,4.00
2022-11-09T02:04:03.084Z,4.00
2022-11-09T02:05:03.078Z,4.00
2022-11-09T02:06:03.104Z,0.00
2022-11-09T02:07:03.159Z,0.00
2022-11-09T02:08:03.080Z,0.00
2022-11-09T02:09:03.082Z,4.00
2022-11-09T02:10:03.075Z,4.00
2022-11-09T02:11:03.084Z,4.00
2022-11-09T02:12:03.079Z,0.00
2022-11-09T02:13:03.074Z,4.00
2022-11-09T02:14:03.073Z,0.00
2022-11-09T02:15:03.081Z,0.00
2022-11-09T02:16:03.080Z,0.00
2022-11-09T02:17:03.073Z,0.00
2022-11-09T02:18:03.078Z,0.00
2022-11-09T02:19:03.078Z,0.00
2022-11-09T02:20:03.067Z,4.00
2022-11-09T02:21:03.078Z,4.00
2022-11-09T02:22:03.092Z,4.00
2022-11-09T02:23:03.067Z,4.00
2022-11-09T02:24:03.069Z,4.00
2022-11-09T02:25:03.073Z,0.00
2022-11-09T02:26:03.069Z,0.00
2022-11-09T02:27:03.071Z,0.00
2022-11-09T02:28:03.071Z,0.00
2022-11-09T02:29:03.059Z,4.00
2022-11-09T02:30:03.065Z,0.00
2022-11-09T02:31:03.062Z,4.00
2022-11-09T02:32:03.069Z,0.00
2022-11-09T02:33:03.063Z,0.00
2022-11-09T02:34:03.065Z,0.00
2022-11-09T02:35:03.062Z,0.00
2022-11-09T02:36:03.078Z,0.00
2022-11-09T02:37:03.061Z,4.00
2022-11-09T02:38:03.080Z,4.00
2022-11-09T02:39:03.056Z,0.00
2022-11-09T02:40:03.062Z,0.00
2022-11-09T02:41:03.058Z,0.00
2022-11-09T02:42:04.457Z,0.00
2022-11-09T02:43:03.058Z,0.00
2022-11-09T02:44:03.054Z,0.00
2022-11-09T02:45:03.059Z,0.00
2022-11-09T02:46:03.055Z,0.00
2022-11-09T02:47:03.056Z,4.00
2022-11-09T02:48:03.053Z,0.00
2022-11-09T02:49:03.055Z,0.00
2022-11-09T02:50:03.051Z,0.00
2022-11-09T02:51:03.053Z,0.00
2022-11-09T02:52:03.048Z,0.00
2022-11-09T02:53:03.046Z,0.00
2022-11-09T02:54:03.074Z,0.00
2022-11-09T02:55:03.048Z,0.00
2022-11-09T02:56:03.048Z,0.00
2022-11-09T02:57:03.048Z,0.00
2022-11-09T02:58:03.049Z,0.00
2022-11-09T02:59:03.046Z,0.00
2022-11-09T03:00:03.044Z,0.00
2022-11-09T03:01:03.083Z,4.00
2022-11-09T03:02:03.042Z,0.00
2022-11-09T03:03:03.048Z,4.00
2022-11-09T03:04:03.040Z,0.00
2022-11-09T03:05:03.044Z,0.00
2022-11-09T03:06:03.042Z,0.00
2022-11-09T03:07:03.088Z,0.00
2022-11-09T03:08:03.040Z,0.00
2022-11-09T03:09:03.040Z,0.00
2022-11-09T03:10:03.058Z,0.00
2022-11-09T03:11:03.033Z,0.00
2022-11-09T03:12:03.042Z,0.00
2022-11-09T03:13:03.037Z,0.00
2022-11-09T03:14:03.033Z,0.00
2022-11-09T03:15:03.038Z,0.00
2022-11-09T03:16:03.028Z,0.00
2022-11-09T03:17:03.031Z,0.00
2022-11-09T03:18:03.032Z,4.00
2022-11-09T03:19:03.033Z,0.00
2022-11-09T03:20:03.033Z,0.00
2022-11-09T03:21:03.033Z,4.00
2022-11-09T03:22:03.027Z,0.00
2022-11-09T03:23:03.036Z,0.00
2022-11-09T03:24:03.025Z,0.00
2022-11-09T03:25:03.029Z,0.00
2022-11-09T03:26:03.064Z,0.00
2022-11-09T03:27:03.027Z,4.00
2022-11-09T03:28:03.043Z,4.00
2022-11-09T03:29:03.028Z,0.00
2022-11-09T03:30:03.024Z,0.00
2022-11-09T03:31:03.025Z,4.00
2022-11-09T03:32:03.026Z,0.00
2022-11-09T03:33:03.023Z,4.00
2022-11-09T03:34:03.020Z,0.00
2022-11-09T03:35:03.020Z,0.00
2022-11-09T03:36:03.022Z,0.00
2022-11-09T03:37:03.014Z,0.00
2022-11-09T03:38:03.115Z,0.00
2022-11-09T03:39:03.018Z,0.00
2022-11-09T03:40:03.014Z,0.00
2022-11-09T03:41:03.013Z,0.00
2022-11-09T03:42:03.040Z,0.00
2022-11-09T03:43:03.017Z,4.00
2022-11-09T03:44:03.011Z,0.00
2022-11-09T03:45:03.017Z,0.00
2022-11-09T03:46:03.010Z,0.00
2022-11-09T03:47:03.023Z,4.00
2022-11-09T03:48:03.015Z,4.00
2022-11-09T03:49:03.009Z,4.00
2022-11-09T03:50:03.014Z,0.00
2022-11-09T03:51:03.007Z,0.00
2022-11-09T03:52:03.011Z,4.00
2022-11-09T03:53:03.021Z,4.00
2022-11-09T03:54:03.006Z,0.00
2022-11-09T03:55:03.014Z,0.00
2022-11-09T03:56:03.012Z,4.00
2022-11-09T03:57:03.011Z,4.00
2022-11-09T03:58:03.021Z,0.00
2022-11-09T03:59:03.006Z,0.00
2022-11-09T04:00:03.009Z,4.00
2022-11-09T04:01:03.002Z,4.00
2022-11-09T04:02:03.147Z,0.00
2022-11-09T04:03:03.004Z,0.00
2022-11-09T04:04:03.000Z,0.00
2022-11-09T04:05:02.996Z,0.00
2022-11-09T04:06:02.996Z,0.00
2022-11-09T04:07:03.018Z,0.00
2022-11-09T04:08:02.996Z,0.00
2022-11-09T04:09:02.998Z,0.00
2022-11-09T04:10:02.997Z,0.00
2022-11-09T04:11:02.993Z,0.00
2022-11-09T04:12:03.011Z,0.00
2022-11-09T04:13:02.999Z,0.00
2022-11-09T04:14:03.014Z,0.00
2022-11-09T04:15:02.989Z,0.00
2022-11-09T04:16:02.988Z,0.00
2022-11-09T04:17:02.990Z,0.00
2022-11-09T04:18:02.995Z,0.00
2022-11-09T04:19:03.003Z,4.00
2022-11-09T04:20:02.994Z,0.00
2022-11-09T04:21:02.988Z,0.00
2022-11-09T04:22:02.994Z,0.00
2022-11-09T04:23:03.087Z,0.00
2022-11-09T04:24:02.985Z,0.00
2022-11-09T04:25:02.990Z,4.00
2022-11-09T04:26:02.985Z,0.00
2022-11-09T04:27:02.984Z,4.00
2022-11-09T04:28:02.985Z,0.00
2022-11-09T04:29:02.981Z,0.00
2022-11-09T04:30:03.006Z,4.00
2022-11-09T04:31:02.981Z,0.00
2022-11-09T04:32:02.985Z,0.00
2022-11-09T04:33:02.983Z,0.00
2022-11-09T04:34:02.976Z,0.00
2022-11-09T04:35:02.980Z,4.00
2022-11-09T04:36:02.976Z,0.00
2022-11-09T04:37:02.980Z,0.00
2022-11-09T04:38:02.973Z,4.00
2022-11-09T04:39:02.976Z,0.00
2022-11-09T04:40:02.975Z,0.00
2022-11-09T04:41:02.976Z,0.00
2022-11-09T04:42:02.978Z,0.00
2022-11-09T04:43:02.975Z,4.00
2022-11-09T04:44:02.972Z,0.00
2022-11-09T04:45:02.973Z,0.00
2022-11-09T04:46:02.987Z,0.00
2022-11-09T04:47:02.973Z,0.00
2022-11-09T04:48:02.974Z,0.00
2022-11-09T04:49:02.970Z,0.00
2022-11-09T04:50:02.975Z,0.00
2022-11-09T04:51:02.979Z,0.00
2022-11-09T04:52:02.973Z,0.00
2022-11-09T04:53:19.400Z,4.00
2022-11-09T04:54:02.971Z,4.00
2022-11-09T04:55:02.970Z,0.00
2022-11-09T04:56:02.964Z,4.00
2022-11-09T04:57:02.980Z,0.00
2022-11-09T04:58:02.966Z,0.00
2022-11-09T04:59:02.962Z,0.00
2022-11-09T05:00:02.962Z,0.00
2022-11-09T05:01:02.967Z,0.00
2022-11-09T05:02:03.065Z,0.00
2022-11-09T05:03:02.970Z,0.00
2022-11-09T05:04:03.117Z,0.00
2022-11-09T05:05:02.962Z,0.00
2022-11-09T05:06:02.957Z,0.00
2022-11-09T05:07:03.044Z,0.00
2022-11-09T05:08:02.961Z,0.00
2022-11-09T05:09:02.954Z,0.00
2022-11-09T05:10:02.953Z,0.00
2022-11-09T05:11:02.962Z,0.00
2022-11-09T05:12:02.954Z,0.00
2022-11-09T05:13:02.965Z,0.00
2022-11-09T05:14:02.952Z,0.00
2022-11-09T05:15:02.957Z,0.00
2022-11-09T05:16:02.957Z,0.00
2022-11-09T05:17:02.947Z,0.00
2022-11-09T05:18:02.970Z,0.00
2022-11-09T05:19:02.948Z,0.00
2022-11-09T05:20:02.954Z,0.00
2022-11-09T05:21:02.944Z,0.00
2022-11-09T05:22:02.950Z,0.00
2022-11-09T05:23:02.947Z,0.00
2022-11-09T05:24:03.015Z,0.00
2022-11-09T05:25:02.944Z,0.00
2022-11-09T05:26:02.942Z,0.00
2022-11-09T05:27:02.951Z,0.00
2022-11-09T05:28:02.947Z,0.00
2022-11-09T05:29:02.944Z,0.00
2022-11-09T05:30:02.944Z,0.00
2022-11-09T05:31:02.946Z,0.00
2022-11-09T05:32:02.949Z,0.00
2022-11-09T05:33:02.950Z,0.00
2022-11-09T05:34:02.955Z,0.00
2022-11-09T05:35:02.938Z,0.00
2022-11-09T05:36:02.934Z,0.00
2022-11-09T05:37:03.775Z,0.00
2022-11-09T05:38:02.940Z,0.00
2022-11-09T05:39:02.938Z,0.00
2022-11-09T05:40:02.938Z,0.00
2022-11-09T05:41:02.936Z,0.00
2022-11-09T05:42:02.935Z,0.00
2022-11-09T05:43:02.941Z,0.00
2022-11-09T05:44:02.939Z,0.00
2022-11-09T05:45:21.282Z,0.00
2022-11-09T05:46:06.552Z,0.00
2022-11-09T05:47:02.948Z,0.00
2022-11-09T05:48:02.928Z,0.00
2022-11-09T05:49:02.926Z,0.00
2022-11-09T05:50:03.002Z,0.00
2022-11-09T05:51:02.926Z,0.00
2022-11-09T05:52:02.932Z,0.00
2022-11-09T05:53:02.927Z,0.00
2022-11-09T05:54:02.921Z,4.00
2022-11-09T05:55:02.928Z,0.00
2022-11-09T05:56:02.922Z,0.00
2022-11-09T05:57:02.921Z,4.00
2022-11-09T05:58:02.925Z,4.00
2022-11-09T05:59:02.929Z,4.00
2022-11-09T06:00:05.296Z,4.00
2022-11-09T06:01:02.921Z,4.00
2022-11-09T06:02:02.970Z,4.00
2022-11-09T06:03:02.926Z,8.00
2022-11-09T06:04:02.920Z,4.00
2022-11-09T06:05:02.920Z,8.00
2022-11-09T06:06:08.076Z,8.00
2022-11-09T06:07:03.012Z,8.00
2022-11-09T06:08:02.911Z,12.00
2022-11-09T06:09:02.914Z,12.00
2022-11-09T06:10:02.916Z,8.00
2022-11-09T06:11:02.914Z,8.00
2022-11-09T06:12:02.916Z,12.00
2022-11-09T06:13:02.908Z,16.00
2022-11-09T06:14:02.906Z,12.00
2022-11-09T06:15:02.911Z,16.00
2022-11-09T06:16:02.910Z,16.00
2022-11-09T06:17:02.918Z,24.00
2022-11-09T06:18:02.917Z,24.00
2022-11-09T06:19:02.908Z,24.00
2022-11-09T06:20:02.906Z,24.00
2022-11-09T06:21:02.910Z,32.00
2022-11-09T06:22:02.935Z,28.00
2022-11-09T06:23:04.125Z,36.00
2022-11-09T06:24:02.909Z,36.00
2022-11-09T06:25:02.909Z,36.00
2022-11-09T06:26:02.905Z,40.00
2022-11-09T06:27:02.912Z,44.00
2022-11-09T06:28:02.904Z,48.00
2022-11-09T06:29:02.902Z,56.00
2022-11-09T06:30:02.898Z,68.00
2022-11-09T06:31:02.903Z,76.00
2022-11-09T06:32:02.900Z,76.00
2022-11-09T06:33:02.907Z,76.00
2022-11-09T06:34:02.895Z,72.00
2022-11-09T06:35:02.890Z,68.00
2022-11-09T06:36:02.898Z,68.00
2022-11-09T06:37:02.893Z,68.00
2022-11-09T06:38:02.913Z,80.00
2022-11-09T06:39:02.900Z,88.00
2022-11-09T06:40:02.892Z,96.00
2022-11-09T06:41:02.888Z,108.00
2022-11-09T06:42:02.922Z,128.00
2022-11-09T06:43:02.885Z,156.00
2022-11-09T06:44:02.895Z,184.00
2022-11-09T06:45:02.889Z,204.00
2022-11-09T06:46:02.896Z,224.00
2022-11-09T06:47:02.886Z,244.00
2022-11-09T06:48:02.887Z,268.00
2022-11-09T06:49:02.885Z,292.00
2022-11-09T06:50:02.893Z,332.00
2022-11-09T06:51:02.881Z,384.00
2022-11-09T06:52:02.891Z,412.00
2022-11-09T06:53:02.883Z,420.00
2022-11-09T06:54:02.907Z,420.00
2022-11-09T06:55:02.892Z,436.00
2022-11-09T06:56:02.980Z,444.00
2022-11-09T06:57:02.879Z,468.00
2022-11-09T06:58:02.877Z,476.00
2022-11-09T06:59:02.882Z,480.00
2022-11-09T07:00:02.878Z,488.00
2022-11-09T07:01:02.916Z,508.00
2022-11-09T07:02:02.879Z,528.00
2022-11-09T07:03:02.890Z,544.00
2022-11-09T07:04:03.210Z,524.00
2022-11-09T07:05:02.872Z,508.00
2022-11-09T07:06:02.879Z,536.00
2022-11-09T07:07:02.955Z,556.00
2022-11-09T07:08:02.875Z,536.00
2022-11-09T07:09:02.897Z,500.00
2022-11-09T07:10:02.907Z,508.00
2022-11-09T07:11:02.869Z,484.00
2022-11-09T07:12:02.869Z,468.00
2022-11-09T07:13:02.867Z,452.00
2022-11-09T07:14:02.866Z,448.00
2022-11-09T07:15:02.889Z,444.00
2022-11-09T07:16:02.880Z,412.00
2022-11-09T07:17:02.865Z,384.00
2022-11-09T07:18:02.864Z,356.00
2022-11-09T07:19:02.874Z,364.00
2022-11-09T07:20:02.863Z,400.00
2022-11-09T07:21:02.862Z,428.00
2022-11-09T07:22:02.872Z,456.00
2022-11-09T07:23:02.861Z,488.00
2022-11-09T07:24:02.863Z,508.00
2022-11-09T07:25:02.859Z,524.00
2022-11-09T07:26:02.886Z,528.00
2022-11-09T07:27:02.857Z,536.00
2022-11-09T07:28:02.856Z,532.00
2022-11-09T07:29:02.857Z,536.00
2022-11-09T07:30:02.846Z,508.00
2022-11-09T07:31:02.855Z,452.00
2022-11-09T07:32:02.906Z,416.00
2022-11-09T07:33:09.085Z,440.00
2022-11-09T07:34:02.859Z,464.00
2022-11-09T07:35:02.848Z,436.00
2022-11-09T07:36:02.857Z,400.00
2022-11-09T07:37:02.849Z,400.00
2022-11-09T07:38:02.858Z,388.00
2022-11-09T07:39:02.849Z,416.00
2022-11-09T07:40:02.854Z,444.00
2022-11-09T07:41:02.847Z,512.00
2022-11-09T07:42:02.871Z,544.00
2022-11-09T07:43:02.850Z,576.00
2022-11-09T07:44:02.846Z,636.00
2022-11-09T07:45:02.849Z,760.00
2022-11-09T07:46:02.845Z,872.00
2022-11-09T07:47:02.848Z,908.00
2022-11-09T07:48:02.848Z,888.00
2022-11-09T07:49:02.850Z,852.00
2022-11-09T07:50:02.853Z,856.00
2022-11-09T07:51:02.841Z,928.00
2022-11-09T07:52:02.848Z,1016.00
2022-11-09T07:53:02.836Z,1080.00
2022-11-09T07:54:02.841Z,1092.00
2022-11-09T07:55:02.838Z,1092.00
2022-11-09T07:56:02.848Z,1104.00
2022-11-09T07:57:02.835Z,1140.00
2022-11-09T07:58:02.856Z,1196.00
2022-11-09T07:59:02.833Z,1276.00
2022-11-09T08:00:02.839Z,1316.00
2022-11-09T08:01:02.836Z,1292.00
2022-11-09T08:02:02.887Z,1320.00
2022-11-09T08:03:02.828Z,1348.00
2022-11-09T08:04:02.836Z,1340.00
2022-11-09T08:05:02.832Z,1296.00
2022-11-09T08:06:02.825Z,1308.00
2022-11-09T08:07:02.875Z,1356.00
2022-11-09T08:08:02.834Z,1372.00
2022-11-09T08:09:02.821Z,1488.00
2022-11-09T08:10:02.831Z,1804.00
2022-11-09T08:11:02.833Z,2172.00
2022-11-09T08:12:02.825Z,2344.00
2022-11-09T08:13:02.818Z,2380.00
2022-11-09T08:14:02.846Z,2428.00
2022-11-09T08:15:02.805Z,2112.00
2022-11-09T08:16:02.824Z,1872.00
2022-11-09T08:17:02.816Z,1848.00
2022-11-09T08:18:02.819Z,2056.00
2022-11-09T08:19:02.817Z,2628.00
2022-11-09T08:20:02.821Z,2868.00
2022-11-09T08:21:02.810Z,2668.00
2022-11-09T08:22:02.823Z,2820.00
2022-11-09T08:23:04.693Z,3172.00
2022-11-09T08:24:02.811Z,3216.00
2022-11-09T08:25:02.804Z,2912.00
2022-11-09T08:26:02.811Z,2692.00
2022-11-09T08:27:02.804Z,2472.00
2022-11-09T08:28:02.812Z,2372.00
2022-11-09T08:29:02.810Z,2360.00
2022-11-09T08:30:02.831Z,2356.00
2022-11-09T08:31:02.884Z,2348.00
2022-11-09T08:32:02.807Z,2216.00
2022-11-09T08:33:02.811Z,2128.00
2022-11-09T08:34:02.807Z,1792.00
2022-11-09T08:35:02.804Z,1628.00
2022-11-09T08:36:02.813Z,1596.00
2022-11-09T08:37:02.803Z,1592.00
2022-11-09T08:38:02.802Z,1656.00
2022-11-09T08:39:02.802Z,1660.00
2022-11-09T08:40:02.799Z,1612.00
2022-11-09T08:41:02.801Z,1532.00
2022-11-09T08:42:02.797Z,1464.00
2022-11-09T08:43:02.824Z,1460.00
2022-11-09T08:44:02.798Z,1456.00
2022-11-09T08:45:02.795Z,1452.00
2022-11-09T08:46:02.827Z,1424.00
2022-11-09T08:47:02.794Z,1400.00
2022-11-09T08:48:02.797Z,1396.00
2022-11-09T08:49:02.796Z,1396.00
2022-11-09T08:50:02.977Z,1392.00
2022-11-09T08:51:02.804Z,1376.00
2022-11-09T08:52:02.782Z,1364.00
2022-11-09T08:53:02.787Z,1344.00
2022-11-09T08:54:02.790Z,1340.00
2022-11-09T08:55:03.000Z,1356.00
2022-11-09T08:56:02.798Z,1432.00
2022-11-09T08:57:02.795Z,1524.00
2022-11-09T08:58:02.794Z,1608.00
2022-11-09T08:59:02.805Z,1676.00
2022-11-09T09:00:02.795Z,1736.00
2022-11-09T09:01:02.782Z,1776.00
2022-11-09T09:03:02.802Z,1824.00
2022-11-09T09:04:02.775Z,1852.00
2022-11-09T09:05:02.785Z,1912.00
2022-11-09T09:06:02.776Z,2028.00
2022-11-09T09:07:02.860Z,2172.00
2022-11-09T09:08:02.787Z,2232.00
2022-11-09T09:09:02.793Z,2204.00
2022-11-09T09:10:02.775Z,2164.00
2022-11-09T09:11:02.985Z,2184.00
2022-11-09T09:12:02.918Z,2292.00
2022-11-09T09:13:02.842Z,2504.00
2022-11-09T09:14:02.775Z,2804.00
2022-11-09T09:15:02.775Z,3080.00
2022-11-09T09:16:02.771Z,3304.00
2022-11-09T09:17:02.857Z,3524.00
2022-11-09T09:18:02.771Z,3800.00
2022-11-09T09:19:03.119Z,4140.00
2022-11-09T09:20:02.768Z,4424.00
2022-11-09T09:21:02.767Z,4544.00
2022-11-09T09:22:02.766Z,4472.00
2022-11-09T09:23:03.102Z,4400.00
2022-11-09T09:24:02.767Z,4344.00
2022-11-09T09:25:02.775Z,4328.00
2022-11-09T09:26:02.759Z,4428.00
2022-11-09T09:27:02.762Z,4544.00
2022-11-09T09:28:02.762Z,4548.00
2022-11-09T09:29:02.764Z,4644.00
2022-11-09T09:30:02.769Z,4900.00
2022-11-09T09:31:02.757Z,5496.00
2022-11-09T09:32:02.765Z,6200.00
2022-11-09T09:33:02.761Z,6604.00
2022-11-09T09:34:02.762Z,6636.00
2022-11-09T09:35:02.789Z,6108.00
2022-11-09T09:36:02.761Z,5372.00
2022-11-09T09:37:02.763Z,4948.00
2022-11-09T09:38:02.758Z,4956.00
2022-11-09T09:39:02.753Z,5472.00
2022-11-09T09:40:02.757Z,6084.00
2022-11-09T09:41:02.765Z,6648.00
2022-11-09T09:42:02.768Z,7112.00
2022-11-09T09:43:02.761Z,7060.00
2022-11-09T09:44:02.755Z,6752.00
2022-11-09T09:45:02.755Z,6640.00
2022-11-09T09:46:02.752Z,6644.00
2022-11-09T09:47:02.756Z,6176.00
2022-11-09T09:48:02.749Z,6252.00
2022-11-09T09:49:02.758Z,6568.00
2022-11-09T09:50:02.868Z,7532.00
2022-11-09T09:51:02.774Z,7232.00
2022-11-09T09:52:02.755Z,7872.00
2022-11-09T09:53:23.349Z,8980.00
2022-11-09T09:54:02.753Z,12848.00
2022-11-09T09:55:02.746Z,11088.00
2022-11-09T09:56:02.751Z,19360.00
2022-11-09T09:57:02.744Z,19232.00
2022-11-09T09:58:02.741Z,17536.00
2022-11-09T09:59:02.746Z,17600.00
2022-11-09T10:00:02.744Z,14020.00
2022-11-09T10:01:02.756Z,11184.00
2022-11-09T10:02:02.751Z,8432.00
2022-11-09T10:03:02.813Z,7980.00
2022-11-09T10:04:02.830Z,7196.00
2022-11-09T10:05:02.740Z,6816.00
2022-11-09T10:06:02.769Z,7096.00
2022-11-09T10:07:02.863Z,8432.00
2022-11-09T10:08:02.736Z,9076.00
2022-11-09T10:09:02.747Z,7864.00
2022-11-09T10:10:02.737Z,7796.00
2022-11-09T10:11:02.751Z,7656.00
2022-11-09T10:12:02.743Z,7584.00
2022-11-09T10:13:02.741Z,7348.00
2022-11-09T10:14:02.741Z,7376.00
2022-11-09T10:15:02.749Z,7352.00
2022-11-09T10:16:02.742Z,7124.00
2022-11-09T10:17:02.737Z,6968.00
2022-11-09T10:18:02.742Z,6972.00
2022-11-09T10:19:02.737Z,7932.00
2022-11-09T10:20:02.732Z,7088.00
2022-11-09T10:21:02.738Z,7512.00
2022-11-09T10:22:02.738Z,8908.00
2022-11-09T10:23:02.754Z,8932.00
2022-11-09T10:24:02.745Z,8508.00
2022-11-09T10:26:04.812Z,8148.00
2022-11-09T10:27:02.733Z,7864.00
2022-11-09T10:28:02.740Z,7544.00
2022-11-09T10:29:16.034Z,7288.00
2022-11-09T10:30:02.738Z,7092.00
2022-11-09T10:31:02.737Z,7020.00
2022-11-09T10:32:02.736Z,6908.00
2022-11-09T10:33:02.730Z,6624.00
2022-11-09T10:34:02.736Z,6444.00
2022-11-09T10:35:02.776Z,6424.00
2022-11-09T10:36:08.025Z,6436.00
2022-11-09T10:37:02.733Z,6472.00
2022-11-09T10:38:02.727Z,6596.00
2022-11-09T10:39:02.754Z,6724.00
2022-11-09T10:40:02.733Z,6936.00
2022-11-09T10:41:02.735Z,7604.00
2022-11-09T10:42:02.797Z,7728.00
2022-11-09T10:43:02.736Z,8432.00
2022-11-09T10:44:02.737Z,8916.00
2022-11-09T10:45:02.732Z,9896.00
2022-11-09T10:46:02.740Z,10152.00
2022-11-09T10:47:02.742Z,10608.00
2022-11-09T10:48:02.778Z,11752.00
2022-11-09T10:49:02.725Z,12764.00
2022-11-09T10:50:02.730Z,14620.00
2022-11-09T10:51:02.737Z,16480.00
2022-11-09T10:52:02.735Z,16128.00
2022-11-09T10:53:02.731Z,26304.00
2022-11-09T10:54:02.728Z,28832.00
2022-11-09T10:55:02.752Z,22560.00
2022-11-09T10:56:02.731Z,13992.00
2022-11-09T10:57:06.973Z,14836.00
2022-11-09T10:58:02.736Z,38944.00
2022-11-09T10:59:02.738Z,22784.00
2022-11-09T11:00:02.741Z,21952.00
2022-11-09T11:01:02.736Z,40608.00
2022-11-09T11:02:02.803Z,44128.00
2022-11-09T11:03:02.732Z,43904.00
2022-11-09T11:04:02.728Z,43392.00
2022-11-09T11:05:02.737Z,43456.00
2022-11-09T11:06:02.730Z,43968.00
2022-11-09T11:07:02.899Z,44000.00
2022-11-09T11:08:02.741Z,43712.00
2022-11-09T11:09:02.737Z,44000.00
2022-11-09T11:10:02.738Z,44192.00
2022-11-09T11:11:19.645Z,43040.00
2022-11-09T11:12:02.743Z,43584.00
2022-11-09T11:13:02.772Z,34240.00
2022-11-09T11:14:02.740Z,25184.00
2022-11-09T11:15:02.752Z,44448.00
2022-11-09T11:16:02.750Z,40992.00
2022-11-09T11:17:02.750Z,43744.00
2022-11-09T11:18:02.747Z,33056.00
2022-11-09T11:19:02.758Z,18464.00
2022-11-09T11:20:03.085Z,43168.00
2022-11-09T11:21:02.762Z,42464.00
2022-11-09T11:22:02.868Z,34528.00
2022-11-09T11:23:02.774Z,36576.00
2022-11-09T11:24:02.779Z,42144.00
2022-11-09T11:25:02.781Z,42752.00
2022-11-09T11:26:02.781Z,42752.00
2022-11-09T11:27:07.886Z,42432.00
2022-11-09T11:28:02.785Z,42080.00
2022-11-09T11:29:02.788Z,41568.00
2022-11-09T11:30:02.796Z,41184.00
2022-11-09T11:31:02.802Z,40352.00
2022-11-09T11:32:02.812Z,40512.00
2022-11-09T11:33:02.805Z,41376.00
2022-11-09T11:34:02.817Z,40576.00
2022-11-09T11:35:02.868Z,39264.00
2022-11-09T11:36:02.835Z,39040.00
2022-11-09T11:37:02.838Z,38720.00
2022-11-09T11:38:02.845Z,37920.00
2022-11-09T11:39:02.845Z,38080.00
2022-11-09T11:40:02.861Z,37600.00
2022-11-09T11:41:02.863Z,33888.00
2022-11-09T11:42:02.876Z,32544.00
2022-11-09T11:43:02.921Z,36416.00
2022-11-09T11:44:02.893Z,28960.00
2022-11-09T11:45:26.046Z,36864.00
2022-11-09T11:46:02.898Z,25824.00
2022-11-09T11:47:02.908Z,34656.00
2022-11-09T11:48:02.925Z,35584.00
2022-11-09T11:49:02.924Z,35360.00
2022-11-09T11:50:02.938Z,32992.00
2022-11-09T11:51:02.941Z,30688.00
2022-11-09T11:52:02.954Z,24960.00
2022-11-09T11:53:02.961Z,19232.00
2022-11-09T11:54:02.972Z,14500.00
2022-11-09T11:55:02.977Z,11032.00
2022-11-09T11:56:02.988Z,9708.00
2022-11-09T11:57:03.041Z,9576.00
2022-11-09T11:58:03.002Z,8176.00
2022-11-09T11:59:03.037Z,6828.00
2022-11-09T12:00:03.019Z,6200.00
2022-11-09T12:01:03.021Z,5824.00
2022-11-09T12:02:03.041Z,5636.00
2022-11-09T12:03:03.205Z,4612.00
2022-11-09T12:04:03.048Z,4500.00
2022-11-09T12:05:03.059Z,4740.00
2022-11-09T12:06:03.065Z,5496.00
2022-11-09T12:07:03.134Z,5664.00
2022-11-09T12:08:03.083Z,5656.00
2022-11-09T12:09:03.096Z,5908.00
2022-11-09T12:10:03.095Z,7116.00
2022-11-09T12:11:03.096Z,8020.00
2022-11-09T12:12:03.118Z,8564.00
2022-11-09T12:13:03.104Z,9148.00
2022-11-09T12:14:03.113Z,9248.00
2022-11-09T12:15:03.155Z,7944.00
2022-11-09T12:16:03.128Z,6756.00
2022-11-09T12:17:03.127Z,7020.00
2022-11-09T12:18:03.138Z,8128.00
2022-11-09T12:19:03.138Z,8836.00
2022-11-09T12:20:03.139Z,8592.00
2022-11-09T12:21:03.145Z,8444.00
2022-11-09T12:22:03.152Z,7732.00
2022-11-09T12:23:03.153Z,7712.00
2022-11-09T12:24:03.152Z,7632.00
2022-11-09T12:25:03.165Z,8060.00
2022-11-09T12:26:03.164Z,8352.00
2022-11-09T12:27:26.012Z,5904.00
2022-11-09T12:28:03.168Z,4120.00
2022-11-09T12:29:03.169Z,3540.00
2022-11-09T12:30:03.173Z,3392.00
2022-11-09T12:31:03.187Z,3424.00
2022-11-09T12:32:03.180Z,3540.00
2022-11-09T12:33:03.191Z,4020.00
2022-11-09T12:34:03.190Z,3880.00
2022-11-09T12:35:03.187Z,3952.00
2022-11-09T12:36:03.254Z,4320.00
2022-11-09T12:37:03.192Z,5112.00
2022-11-09T12:38:03.202Z,5748.00
2022-11-09T12:39:03.198Z,6416.00
2022-11-09T12:40:03.195Z,6344.00
2022-11-09T12:41:03.203Z,5808.00
2022-11-09T12:42:03.217Z,5600.00
2022-11-09T12:43:03.211Z,5484.00